Data for 04/30/2007

Time Sea-Level Adjusted Pressure Absolute Pressure Temperature Relative Humidity Dew Point   
(mb) (inHg) (mb) (inHg) (C) (F) (%) (C) (F)
00:05 1015 29.97 844 24.92 15.8 60.4 41 2.5 36.5
00:10 1015 29.97 845 24.95 15.5 59.9 42 2.7 36.8
00:15 1015 29.97 845 24.95 15.3 59.5 41 2.4 36.3
00:20 1016 30 845 24.95 15.3 59.5 42 2.6 36.7
00:25 1016 30 845 24.95 15.2 59.3 42 2.4 36.4
00:30 1016 30 845 24.95 15.1 59.2 43 2.6 36.6
00:35 1016 30 845 24.95 14.9 58.8 44 2.7 36.8
00:40 1016 30 845 24.95 14.7 58.5 44 2.7 36.8
00:45 1016 30 845 24.95 14.7 58.5 44 2.8 37
00:50 1016 30 846 24.98 14.5 58.1 45 2.8 37.1
00:55 1016 30 846 24.98 14.4 57.9 45 2.7 36.9
01:00 1016 30 846 24.98 14.3 57.7 46 2.8 37
01:05 1017 30.03 846 24.98 14.2 57.5 46 2.7 36.8
01:10 1017 30.03 846 24.98 14.1 57.3 45 2.5 36.5
01:15 1017 30.03 846 24.98 14 57.2 45 2.5 36.5
01:20 1017 30.03 846 24.98 13.9 57 46 2.5 36.5
01:25 1017 30.03 846 24.98 13.8 56.8 47 2.6 36.7
01:30 1017 30.03 846 24.98 13.6 56.6 48 2.8 37
01:35 1017 30.03 846 24.98 13.5 56.3 48 2.9 37.2
01:40 1017 30.03 846 24.98 13.4 56.1 48 2.7 36.9
01:45 1017 30.03 846 24.98 13.3 56 48 2.7 36.9
01:50 1017 30.03 846 24.98 13.3 55.9 48 2.7 36.8
01:55 1017 30.03 846 24.98 13.3 55.9 48 2.6 36.7
02:00 1017 30.03 846 24.98 13.3 55.9 48 2.7 36.8
02:05 1017 30.03 846 24.98 13.2 55.8 50 3 37.3
02:10 1017 30.03 846 24.98 13 55.5 50 2.8 37.1
02:15 1017 30.03 846 24.98 12.9 55.2 50 2.8 37
02:20 1017 30.03 846 24.98 12.9 55.1 51 3 37.4
02:25 1017 30.03 846 24.98 12.6 54.7 52 3.1 37.5
02:30 1017 30.03 846 24.98 12.4 54.4 52 3 37.3
02:35 1017 30.03 846 24.98 12.5 54.4 51 2.7 36.9
02:40 1017 30.03 846 24.98 12.6 54.6 52 2.9 37.2
02:45 1017 30.03 846 24.98 12.6 54.6 51 2.9 37.2
02:50 1017 30.03 846 24.98 12.6 54.6 52 3.1 37.5
02:55 1017 30.03 846 24.98 12.3 54.2 53 3.2 37.8
03:00 1017 30.03 847 25.01 12.2 54 54 3.3 37.9
03:05 1017 30.03 846 24.98 12 53.7 55 3.2 37.8
03:10 1017 30.03 846 24.98 12 53.6 55 3.4 38.1
03:15 1017 30.03 846 24.98 11.9 53.4 56 3.5 38.3
03:20 1017 30.03 846 24.98 11.8 53.2 57 3.5 38.3
03:25 1017 30.03 847 25.01 11.6 52.9 58 3.6 38.4
03:30 1017 30.03 847 25.01 11.5 52.7 58 3.5 38.3
03:35 1018 30.06 847 25.01 11.5 52.7 57 3.4 38.1
03:40 1018 30.06 847 25.01 11.7 53.1 57 3.6 38.5
03:45 1018 30.06 847 25.01 11.5 52.7 59 3.9 39
03:50 1018 30.06 847 25.01 11.4 52.4 59 3.8 38.8
03:55 1018 30.06 847 25.01 11.3 52.4 59 3.7 38.6
04:00 1018 30.06 847 25.01 11.4 52.6 59 3.6 38.6
04:05 1018 30.06 847 25.01 11.5 52.7 59 3.7 38.7
04:10 1018 30.06 847 25.01 11.5 52.7 59 3.8 38.8
04:15 1018 30.06 847 25.01 11.5 52.7 59 3.8 38.8
04:20 1018 30.06 847 25.01 11.6 52.8 59 3.8 38.8
04:25 1018 30.06 847 25.01 11.7 53 57 3.6 38.5
04:30 1018 30.06 847 25.01 11.7 53.1 57 3.6 38.5
04:35 1017 30.03 847 25.01 11.6 52.9 58 3.8 38.8
04:40 1017 30.03 847 25.01 11.3 52.4 60 3.8 38.9
04:45 1017 30.03 846 24.98 11.1 52 59 3.6 38.4
04:50 1017 30.03 846 24.98 11.2 52.1 59 3.6 38.4
04:55 1017 30.03 847 25.01 11 51.9 60 3.6 38.5
05:00 1017 30.03 847 25.01 11 51.7 60 3.6 38.4
05:05 1017 30.03 846 24.98 10.9 51.7 59 3.4 38.1
05:10 1017 30.03 847 25.01 11.1 52 59 3.4 38
05:15 1017 30.03 847 25.01 11.1 52 58 3.3 38
05:20 1018 30.06 847 25.01 11.3 52.4 58 3.4 38.1
05:25 1018 30.06 847 25.01 11.5 52.7 58 3.5 38.3
05:30 1018 30.06 847 25.01 11.6 52.8 58 3.6 38.4
05:35 1018 30.06 847 25.01 11.3 52.3 59 3.6 38.4
05:40 1018 30.06 847 25.01 11.2 52.1 60 3.6 38.5
05:45 1018 30.06 847 25.01 11.1 51.9 60 3.7 38.7
05:50 1018 30.06 847 25.01 11.1 52 60 3.8 38.8
05:55 1018 30.06 847 25.01 11.1 52 59 3.4 38.1
06:00 1018 30.06 847 25.01 11.1 51.9 59 3.5 38.4
06:05 1018 30.06 847 25.01 11.1 52 61 3.9 38.9
06:10 1018 30.06 847 25.01 11.1 51.9 61 4 39.2
06:15 1018 30.06 847 25.01 11.1 51.9 61 3.9 39.1
06:20 1018 30.06 847 25.01 11 51.8 62 4 39.2
06:25 1018 30.06 847 25.01 10.9 51.6 62 4 39.2
06:30 1018 30.06 847 25.01 11 51.7 62 4.1 39.4
06:35 1018 30.06 847 25.01 10.5 50.9 66 4.4 39.9
06:40 1018 30.06 848 25.04 10.5 50.8 65 4.2 39.6
06:45 1018 30.06 848 25.04 10.6 51 65 4.3 39.7
06:50 1019 30.09 848 25.04 10.5 51 66 4.4 39.9
06:55 1019 30.09 848 25.04 10.5 50.9 67 4.6 40.4
07:00 1018 30.06 848 25.04 10.5 50.9 67 4.6 40.3
07:05 1018 30.06 848 25.04 10.6 51 67 4.7 40.4
07:10 1018 30.06 847 25.01 10.6 51 66 4.5 40.1
07:15 1018 30.06 848 25.04 10.5 50.9 66 4.5 40.2
07:20 1018 30.06 848 25.04 10.5 50.8 67 4.6 40.3
07:25 1018 30.06 848 25.04 10.2 50.4 69 4.8 40.7
07:30 1018 30.06 848 25.04 10.3 50.5 69 4.8 40.7
07:35 1018 30.06 848 25.04 10.4 50.7 69 5 40.9
07:40 1018 30.06 847 25.01 10.2 50.3 70 4.9 40.8
07:45 1018 30.06 847 25.01 10.3 50.6 66 4.4 39.9
07:50 1018 30.06 847 25.01 10.6 51 65 4.3 39.7
07:55 1018 30.06 847 25.01 10.9 51.5 64 4.4 40
08:00 1018 30.06 847 25.01 10.9 51.6 64 4.4 40
08:05 1018 30.06 847 25.01 10.8 51.5 64 4.2 39.6
08:10 1018 30.06 847 25.01 10.9 51.7 63 4.2 39.5
08:15 1018 30.06 847 25.01 11.2 52.1 63 4.4 39.9
08:20 1018 30.06 848 25.04 11.2 52.1 63 4.4 40
08:25 1018 30.06 847 25.01 11.2 52.1 62 4.3 39.8
08:30 1018 30.06 847 25.01 11.6 52.9 61 4.4 39.9
08:35 1018 30.06 847 25.01 11.6 53 62 4.7 40.5
08:40 1018 30.06 847 25.01 11.4 52.6 63 4.6 40.3
08:45 1018 30.06 847 25.01 11.6 52.8 61 4.3 39.8
08:50 1018 30.06 847 25.01 11.9 53.4 61 4.6 40.3
08:55 1018 30.06 847 25.01 12 53.5 59 4.4 39.8
09:00 1018 30.06 847 25.01 12.3 54.2 56 4 39.1
09:05 1018 30.06 847 25.01 12.6 54.7 58 4.6 40.2
09:10 1018 30.06 847 25.01 12.8 55.1 55 4.2 39.5
09:15 1018 30.06 847 25.01 12.6 54.8 56 4.1 39.4
09:20 1018 30.06 847 25.01 12.8 55 54 3.8 38.9
09:25 1018 30.06 847 25.01 13.8 56.8 50 3.5 38.3
09:30 1018 30.06 847 25.01 14.2 57.5 51 4.2 39.5
09:35 1018 30.06 847 25.01 14.3 57.7 53 4.8 40.7
09:40 1018 30.06 847 25.01 14.3 57.7 53 4.8 40.7
09:45 1018 30.06 847 25.01 14 57.2 53 4.7 40.4
09:50 1018 30.06 847 25.01 14.9 58.8 49 4.4 39.9
09:55 1018 30.06 847 25.01 15.5 59.8 49 5 41
10:00 1018 30.06 847 25.01 15.2 59.4 51 5.2 41.4
10:05 1018 30.06 847 25.01 14.8 58.7 49 4.3 39.8
10:10 1018 30.06 847 25.01 15.4 59.7 48 4.5 40.1
10:15 1018 30.06 847 25.01 16.1 60.9 44 3.9 39.1
10:20 1018 30.06 847 25.01 16.9 62.3 44 4.8 40.6
10:25 1018 30.06 847 25.01 16.2 61.2 45 4.3 39.7
10:30 1018 30.06 847 25.01 15.8 60.4 45 4.1 39.4
10:35 1018 30.06 847 25.01 16.1 60.9 44 4.1 39.3
10:40 1018 30.06 847 25.01 15.9 60.6 45 4.2 39.6
10:45 1018 30.06 847 25.01 15.6 60 46 4.1 39.4
10:50 1018 30.06 847 25.01 15.7 60.2 45 3.8 38.9
10:55 1018 30.06 847 25.01 15.5 59.9 46 4.1 39.5
11:00 1018 30.06 847 25.01 15.1 59.1 47 4 39.2
11:05 1018 30.06 847 25.01 15.7 60.3 44 3.7 38.7
11:10 1018 30.06 847 25.01 16.1 61 44 4 39.2
11:15 1018 30.06 847 25.01 17.2 62.9 42 4.1 39.4
11:20 1018 30.06 847 25.01 17.1 62.8 43 4.5 40
11:25 1018 30.06 847 25.01 16.6 61.8 43 4 39.2
11:30 1018 30.06 847 25.01 16.7 62 44 4.5 40.1
11:35 1018 30.06 847 25.01 17 62.5 44 4.7 40.4
11:40 1018 30.06 847 25.01 16.6 61.9 44 4.5 40.2
11:45 1018 30.06 847 25.01 17.3 63.2 41 4.1 39.4
11:50 1018 30.06 847 25.01 18.1 64.6 40 4.4 39.9
11:55 1018 30.06 847 25.01 18.1 64.6 40 4.4 40
12:00 1018 30.06 847 25.01 18.9 66 36 3.5 38.3
12:05 1018 30.06 847 25.01 19.2 66.5 37 4.4 40
12:10 1018 30.06 847 25.01 19.2 66.6 35 3.7 38.6
12:15 1018 30.06 847 25.01 19.6 67.3 33 3 37.3
12:20 1018 30.06 847 25.01 19.8 67.6 34 3.6 38.5
12:25 1017 30.03 847 25.01 19.8 67.6 34 3.7 38.7
12:30 1017 30.03 847 25.01 19.6 67.2 34 3.4 38.1
12:35 1017 30.03 846 24.98 19.6 67.3 35 4 39.1
12:40 1017 30.03 846 24.98 19 66.2 39 5 40.9
12:45 1017 30.03 846 24.98 19 66.2 36 3.8 38.8
12:50 1017 30.03 846 24.98 19 66.2 35 3.3 37.9
12:55 1017 30.03 846 24.98 19.3 66.8 34 3.3 37.9
13:00 1017 30.03 846 24.98 18.9 65.9 35 3.2 37.7
13:05 1017 30.03 846 24.98 19.1 66.4 35 3.5 38.3
13:10 1017 30.03 846 24.98 19.9 67.7 32 2.9 37.3
13:15 1017 30.03 846 24.98 20.7 69.3 32 3.5 38.3
13:20 1017 30.03 846 24.98 20.4 68.7 31 3 37.4
13:25 1017 30.03 846 24.98 21.1 69.9 30 3 37.5
13:30 1017 30.03 846 24.98 20.6 69 32 3.7 38.6
13:35 1016 30 846 24.98 20.7 69.2 30 2.6 36.6
13:40 1016 30 846 24.98 21.4 70.5 28 2.4 36.4
13:45 1016 30 846 24.98 21.2 70.2 29 2.4 36.4
13:50 1016 30 845 24.95 20.8 69.4 30 2.9 37.3
13:55 1016 30 845 24.95 20.6 69 30 2.6 36.6
14:00 1016 30 845 24.95 20.5 68.8 30 2.5 36.4
14:05 1016 30 845 24.95 20.5 68.9 30 2.4 36.3
14:10 1016 30 845 24.95 21.1 69.9 28 2.1 35.8
14:15 1016 30 845 24.95 21.6 71 27 2.2 35.9
14:20 1016 30 845 24.95 21.1 69.9 30 2.9 37.3
14:25 1016 30 845 24.95 19.4 66.9 31 2.1 35.8
14:30 1016 30 845 24.95 20.4 68.8 29 1.8 35.2
14:35 1016 30 845 24.95 20.3 68.5 30 2.3 36.1
14:40 1016 30 845 24.95 19.9 67.8 30 2.2 35.9
14:45 1016 30 845 24.95 19.9 67.8 30 2 35.7
14:50 1016 30 845 24.95 21.1 70 28 2.1 35.8
14:55 1016 30 845 24.95 21 69.9 29 2.7 36.8
15:00 1016 30 845 24.95 21.4 70.5 28 2.3 36.2
15:05 1016 30 845 24.95 21.2 70.1 28 2.4 36.3
15:10 1016 30 845 24.95 20.5 68.8 29 2.1 35.8
15:15 1016 30 845 24.95 21 69.7 27 1.5 34.7
15:20 1016 30 845 24.95 20.8 69.5 29 2.5 36.5
15:25 1016 30 845 24.95 21 69.8 28 2.2 35.9
15:30 1016 30 845 24.95 20.9 69.6 29 2.2 36
15:35 1016 30 845 24.95 20.2 68.3 29 1.7 35.1
15:40 1016 30 845 24.95 20.5 68.8 29 2 35.5
15:45 1016 30 845 24.95 20.1 68.1 29 1.8 35.2
15:50 1016 30 845 24.95 19.8 67.6 29 1.6 34.8
15:55 1015 29.97 845 24.95 20.7 69.2 27 1.3 34.3
16:00 1015 29.97 845 24.95 21.5 70.8 26 1.6 35
16:05 1015 29.97 845 24.95 21.5 70.7 27 1.9 35.5
16:10 1015 29.97 845 24.95 20.9 69.6 27 1.5 34.7
16:15 1015 29.97 845 24.95 22 71.6 25 1.2 34.1
16:20 1015 29.97 845 24.95 22.6 72.6 25 2 35.5
16:25 1015 29.97 845 24.95 22 71.5 26 2 35.7
16:30 1015 29.97 844 24.92 21.7 71.1 26 1.5 34.6
16:35 1015 29.97 844 24.92 21.1 69.9 25 0.2 32.4
16:40 1015 29.97 844 24.92 21.8 71.3 25 0.9 33.6
16:45 1015 29.97 844 24.92 22.5 72.6 24 1.3 34.3
16:50 1015 29.97 844 24.92 22.2 72 25 1.5 34.8
16:55 1015 29.97 844 24.92 22.6 72.7 25 1.5 34.8
17:00 1015 29.97 844 24.92 22.1 71.8 25 1.5 34.7
17:05 1015 29.97 844 24.92 22 71.5 26 1.5 34.7
17:10 1015 29.97 844 24.92 21.5 70.8 27 1.8 35.3
17:15 1015 29.97 844 24.92 21.4 70.5 26 1.2 34.2
17:20 1015 29.97 844 24.92 21.5 70.7 26 1.5 34.6
17:25 1015 29.97 844 24.92 21.2 70.1 27 1.8 35.2
17:30 1015 29.97 844 24.92 20.6 69.1 28 1.4 34.6
17:35 1015 29.97 844 24.92 20.7 69.3 28 1.6 35
17:40 1015 29.97 844 24.92 21.1 70 28 2.3 36.2
17:45 1015 29.97 844 24.92 20.9 69.7 27 1.5 34.6
17:50 1015 29.97 844 24.92 20.9 69.5 28 1.8 35.2
17:55 1015 29.97 844 24.92 21 69.8 27 1.5 34.6
18:00 1015 29.97 844 24.92 21.1 70.1 26 1.1 34
18:05 1015 29.97 844 24.92 21.6 70.9 26 1.2 34.2
18:10 1015 29.97 844 24.92 21.4 70.5 27 1.8 35.2
18:15 1015 29.97 844 24.92 20.9 69.6 26 1.1 34
18:20 1015 29.97 844 24.92 20.7 69.3 27 1.2 34.2
18:25 1015 29.97 844 24.92 20.8 69.5 26 0.9 33.6
18:30 1015 29.97 844 24.92 20.7 69.2 26 0.9 33.6
18:35 1015 29.97 844 24.92 20.7 69.3 27 1.2 34.1
18:40 1015 29.97 844 24.92 20.4 68.7 27 0.9 33.6
18:45 1015 29.97 844 24.92 20.2 68.3 34 4.1 39.4
18:50 1015 29.97 844 24.92 19.5 67 35 3.9 39.1
18:55 1015 29.97 844 24.92 19.1 66.4 38 4.8 40.6
19:00 1015 29.97 844 24.92 18.9 66 41 5.3 41.6
19:05 1015 29.97 844 24.92 18.6 65.5 42 5.7 42.2
19:10 1015 29.97 844 24.92 18.3 65 43 5.7 42.3
19:15 1015 29.97 844 24.92 18.1 64.6 44 5.9 42.6
19:20 1015 29.97 844 24.92 17.9 64.2 45 6 42.8
19:25 1015 29.97 844 24.92 17.7 63.9 45 5.9 42.6
19:30 1015 29.97 844 24.92 17.7 63.8 47 6.2 43.1
19:35 1015 29.97 844 24.92 17.5 63.5 48 6.3 43.4
19:40 1015 29.97 844 24.92 17.2 62.9 49 6.5 43.8
19:45 1015 29.97 844 24.92 16.8 62.2 50 6.4 43.5
19:50 1015 29.97 844 24.92 16.7 62.1 48 5.9 42.6
19:55 1015 29.97 844 24.92 16.7 62.1 50 6.4 43.5
20:00 1015 29.97 844 24.92 16.4 61.4 53 7 44.6
20:05 1015 29.97 844 24.92 16.1 60.9 55 7.2 45
20:10 1015 29.97 844 24.92 15.9 60.6 56 7.3 45.1
20:15 1015 29.97 844 24.92 15.6 60 58 7.3 45.2
20:20 1015 29.97 844 24.92 15.3 59.6 59 7.4 45.3
20:25 1015 29.97 844 24.92 15 59.1 60 7.4 45.2
20:30 1015 29.97 844 24.92 14.7 58.5 60 7.1 44.8
20:35 1015 29.97 844 24.92 14.5 58.1 60 7 44.5
20:40 1015 29.97 844 24.92 14.2 57.6 60 6.7 44.1
20:45 1015 29.97 844 24.92 14 57.2 60 6.5 43.6
20:50 1015 29.97 844 24.92 13.8 56.9 61 6.5 43.7
20:55 1015 29.97 844 24.92 13.6 56.4 62 6.5 43.6
21:00 1015 29.97 845 24.95 13.3 55.9 63 6.3 43.4
21:05 1015 29.97 844 24.92 13 55.3 62 6 42.7
21:10 1015 29.97 845 24.95 12.7 54.9 62 5.6 42.1
21:15 1015 29.97 845 24.95 12.6 54.6 61 5.4 41.7
21:20 1016 30 845 24.95 12.3 54.1 61 5.1 41.2
21:25 1016 30 845 24.95 12.1 53.9 61 4.9 40.8
21:30 1016 30 845 24.95 12 53.7 61 4.8 40.7
21:35 1016 30 845 24.95 11.9 53.5 61 4.8 40.6
21:40 1016 30 845 24.95 11.8 53.2 61 4.6 40.3
21:45 1016 30 845 24.95 11.7 53 61 4.5 40
21:50 1016 30 845 24.95 11.7 53 61 4.4 40
21:55 1016 30 845 24.95 11.6 52.9 61 4.4 39.9
22:00 1016 30 845 24.95 11.5 52.7 61 4.4 39.8
22:05 1016 30 845 24.95 11.4 52.6 61 4.3 39.8
22:10 1016 30 845 24.95 11.3 52.4 62 4.3 39.7
22:15 1016 30 845 24.95 11.3 52.3 62 4.2 39.6
22:20 1016 30 845 24.95 11.2 52.1 62 4.2 39.6
22:25 1016 30 845 24.95 11.2 52.1 62 4.1 39.4
22:30 1016 30 845 24.95 11.1 52 62 4.2 39.6
22:35 1016 30 845 24.95 11 51.8 62 4 39.2
22:40 1016 30 846 24.98 11 51.8 62 4.1 39.3
22:45 1016 30 846 24.98 11 51.8 62 4 39.1
22:50 1016 30 846 24.98 10.9 51.7 62 3.9 39.1
22:55 1016 30 846 24.98 10.8 51.5 62 3.8 38.9
23:00 1016 30 846 24.98 10.9 51.5 62 3.9 39
23:05 1016 30 846 24.98 10.8 51.5 62 3.9 39
23:10 1017 30.03 846 24.98 10.7 51.3 62 3.8 38.9
23:15 1016 30 846 24.98 10.6 51.1 63 3.8 38.9
23:20 1016 30 846 24.98 10.6 51 62 3.7 38.6
23:25 1016 30 846 24.98 10.5 51 62 3.7 38.6
23:30 1017 30.03 846 24.98 10.5 50.9 63 3.7 38.6
23:35 1016 30 846 24.98 10.4 50.7 63 3.6 38.5
23:40 1016 30 846 24.98 10.3 50.6 63 3.7 38.6
23:45 1017 30.03 846 24.98 10.3 50.5 63 3.5 38.4
23:50 1017 30.03 846 24.98 10.2 50.4 63 3.5 38.3
23:55 1017 30.03 846 24.98 10.3 50.5 63 3.5 38.2
24:00 1017 30.03 846 24.98 10.2 50.4 63 3.4 38.2